Time;durP1;ratioP1;P1;durP2;ratioP2;P2;SDS_P1;SDS_P2;PMS_P1;PMS_P2;Temp;Humidity;BMP_temperature;BMP_pressure;BME280_temperature;BME280_humidity;BME280_pressure;Samples;Min_cycle;Max_cycle;Signal;HPM_P1;HPM_P2
2021/11/29 00:02:03;;;;;;;;;;;;;;;22.65;31.30;96255.22;4984645;28;922;-76
2021/11/29 00:04:28;;;;;;;;;;;;;;;22.74;31.00;96245.78;4983337;28;810;-77
2021/11/29 00:06:54;;;;;;;;;;;;;;;22.57;30.60;96254.06;4984986;28;831;-76
2021/11/29 00:09:19;;;;;;;;;;;;;;;22.38;30.85;96259.19;4983393;28;798;-76
2021/11/29 00:11:45;;;;;;;;;;;;;;;22.12;31.38;96258.28;5014931;28;1258;-76
2021/11/29 00:14:10;;;;;;;;;;;;;;;22.27;30.74;96254.13;5022861;28;743;-77
2021/11/29 00:16:36;;;;;;;;;;;;;;;22.28;30.55;96272.72;5024261;28;1955;-76
2021/11/29 00:19:04;;;;;;;;;;;;;;;22.20;30.70;96248.88;4982279;28;1036;-77
2021/11/29 00:21:30;;;;;;;;;;;;;;;22.33;30.98;96252.19;4968912;28;943;-76
2021/11/29 00:23:56;;;;;;;;;;;;;;;22.75;31.33;96253.81;4981459;28;990;-76
2021/11/29 00:26:22;;;;;;;;;;;;;;;22.84;30.91;96248.00;4985239;28;1181;-77
2021/11/29 00:28:48;;;;;;;;;;;;;;;22.77;30.43;96245.59;4962567;29;1041;-76
2021/11/29 00:31:13;;;;;;;;;;;;;;;22.52;30.75;96252.72;4984618;28;890;-77
2021/11/29 00:33:39;;;;;;;;;;;;;;;22.29;30.86;96262.16;4965364;28;1273;-77
2021/11/29 00:36:05;;;;;;;;;;;;;;;22.40;30.40;96261.56;4985992;28;1962;-76
2021/11/29 00:38:31;;;;;;;;;;;;;;;22.24;30.71;96260.81;4982185;28;975;-76
2021/11/29 00:40:56;;;;;;;;;;;;;;;22.38;30.60;96255.59;4946953;29;989;-77
2021/11/29 00:43:22;;;;;;;;;;;;;;;22.26;30.54;96249.75;4943224;29;915;-77
2021/11/29 00:45:47;;;;;;;;;;;;;;;22.23;30.59;96235.81;4965623;29;954;-76
2021/11/29 00:48:13;;;;;;;;;;;;;;;22.22;30.86;96237.06;4962682;29;961;-77
2021/11/29 00:50:38;;;;;;;;;;;;;;;22.33;30.39;96240.88;4999046;28;905;-76
2021/11/29 00:53:05;;;;;;;;;;;;;;;22.48;31.24;96242.84;4969743;28;878;-76
2021/11/29 00:55:30;;;;;;;;;;;;;;;22.62;31.50;96222.97;4963705;28;1283;-76
2021/11/29 00:57:56;;;;;;;;;;;;;;;22.74;31.22;96201.22;4963856;29;1907;-76
2021/11/29 01:00:21;;;;;;;;;;;;;;;22.46;30.88;96219.91;4944512;29;1133;-77
2021/11/29 01:02:47;;;;;;;;;;;;;;;22.30;31.21;96213.50;4945658;29;1256;-76
2021/11/29 01:05:13;;;;;;;;;;;;;;;22.32;30.95;96205.28;4942623;29;1141;-76
2021/11/29 01:07:38;;;;;;;;;;;;;;;22.04;31.38;96223.88;4927439;29;973;-76
2021/11/29 01:10:04;;;;;;;;;;;;;;;22.42;30.42;96225.78;4905487;29;954;-76
2021/11/29 01:12:30;;;;;;;;;;;;;;;22.27;30.98;96208.03;4875185;29;1333;-77
2021/11/29 01:14:55;;;;;;;;;;;;;;;22.60;31.39;96227.59;4868384;29;945;-77
2021/11/29 01:17:21;;;;;;;;;;;;;;;22.73;31.40;96228.00;4870356;29;1962;-76
2021/11/29 01:19:47;;;;;;;;;;;;;;;22.59;30.97;96228.84;4849544;29;1024;-76
2021/11/29 01:22:13;;;;;;;;;;;;;;;22.42;31.08;96211.59;4856374;29;1117;-76
2021/11/29 01:24:38;;;;;;;;;;;;;;;22.46;30.92;96203.69;4868463;29;1289;-76
2021/11/29 01:27:04;;;;;;;;;;;;;;;22.47;30.50;96215.78;4865015;29;917;-76
2021/11/29 01:29:29;;;;;;;;;;;;;;;22.20;30.81;96191.44;4868131;29;973;-77
2021/11/29 01:31:55;;;;;;;;;;;;;;;22.24;30.71;96181.47;4902190;29;954;-78
2021/11/29 01:34:20;;;;;;;;;;;;;;;22.49;30.56;96167.91;4905531;29;974;-76
2021/11/29 01:36:46;;;;;;;;;;;;;;;22.32;30.46;96168.44;4891361;29;1969;-77
2021/11/29 01:39:11;;;;;;;;;;;;;;;22.11;30.87;96161.19;4905114;29;895;-77
2021/11/29 01:41:37;;;;;;;;;;;;;;;22.53;31.38;96165.63;4907237;29;971;-77
2021/11/29 01:44:03;;;;;;;;;;;;;;;22.70;31.10;96155.28;4891853;29;788;-77
2021/11/29 01:46:28;;;;;;;;;;;;;;;22.73;30.86;96142.94;4890076;29;1372;-76
2021/11/29 01:48:55;;;;;;;;;;;;;;;22.31;31.08;96152.72;4891342;29;1129;-77
2021/11/29 01:51:20;;;;;;;;;;;;;;;22.25;31.19;96149.03;4911878;29;1063;-77
2021/11/29 01:53:46;;;;;;;;;;;;;;;22.20;31.17;96158.25;4923737;29;850;-78
2021/11/29 01:56:11;;;;;;;;;;;;;;;22.03;31.26;96155.13;4930245;28;1999;-77
2021/11/29 01:58:37;;;;;;;;;;;;;;;22.35;30.59;96141.97;4984685;28;957;-76
2021/11/29 02:01:04;;;;;;;;;;;;;;;22.13;31.00;96124.69;4969354;28;976;-75
2021/11/29 02:03:30;;;;;;;;;;;;;;;22.36;30.43;96114.41;4959320;28;1371;-77
2021/11/29 02:05:55;;;;;;;;;;;;;;;22.22;30.83;96110.34;4950204;29;1049;-76
2021/11/29 02:08:21;;;;;;;;;;;;;;;22.69;31.49;96122.56;4945617;29;1235;-76
2021/11/29 02:10:47;;;;;;;;;;;;;;;22.84;31.00;96131.72;4930042;29;873;-76
2021/11/29 02:13:12;;;;;;;;;;;;;;;22.65;30.87;96130.50;4908058;29;1082;-77
2021/11/29 02:15:38;;;;;;;;;;;;;;;22.53;31.05;96134.44;4873146;29;1376;-76
2021/11/29 02:18:04;;;;;;;;;;;;;;;22.38;30.94;96120.34;4871667;29;1986;-76
2021/11/29 02:20:30;;;;;;;;;;;;;;;22.08;31.21;96128.19;4845354;29;991;-77
2021/11/29 02:22:55;;;;;;;;;;;;;;;22.43;30.52;96125.31;4817188;29;984;-76
2021/11/29 02:25:21;;;;;;;;;;;;;;;22.36;30.54;96118.00;4798944;30;1133;-76
2021/11/29 02:27:47;;;;;;;;;;;;;;;22.28;30.88;96099.91;4799017;30;969;-76
2021/11/29 02:30:13;;;;;;;;;;;;;;;22.71;31.15;96088.81;4782964;30;1246;-76
2021/11/29 02:32:38;;;;;;;;;;;;;;;22.83;30.83;96084.81;4799785;29;931;-76
2021/11/29 02:35:04;;;;;;;;;;;;;;;22.64;30.87;96077.91;4785330;30;883;-77
2021/11/29 02:37:29;;;;;;;;;;;;;;;22.36;31.21;96077.56;4818135;29;1956;-76
2021/11/29 02:39:55;;;;;;;;;;;;;;;22.38;30.99;96092.00;4774211;30;969;-77
2021/11/29 02:42:20;;;;;;;;;;;;;;;22.38;30.61;96094.06;4781179;30;900;-76
2021/11/29 02:44:46;;;;;;;;;;;;;;;22.44;30.46;96098.56;4807625;29;1229;-77
2021/11/29 02:47:11;;;;;;;;;;;;;;;22.19;30.85;96094.38;4813731;29;893;-77
2021/11/29 02:49:37;;;;;;;;;;;;;;;21.76;31.49;96079.84;4845261;29;1037;-76
2021/11/29 02:52:04;;;;;;;;;;;;;;;22.43;31.60;96079.19;4835928;29;922;-77
2021/11/29 02:54:30;;;;;;;;;;;;;;;22.81;31.02;96053.34;4828328;29;1371;-77
2021/11/29 02:56:56;;;;;;;;;;;;;;;22.87;30.64;96045.66;4835357;29;1911;-76
2021/11/29 02:59:23;;;;;;;;;;;;;;;22.55;30.74;96053.31;4884410;29;1252;-76
2021/11/29 03:01:49;;;;;;;;;;;;;;;22.24;31.12;96031.34;4891247;29;928;-77
2021/11/29 03:04:17;;;;;;;;;;;;;;;22.39;30.71;96024.81;4888525;29;897;-76
2021/11/29 03:06:43;;;;;;;;;;;;;;;22.38;30.54;96009.06;4889971;29;934;-76
2021/11/29 03:09:08;;;;;;;;;;;;;;;22.42;30.57;96033.06;4921038;29;1141;-76
2021/11/29 03:11:34;;;;;;;;;;;;;;;22.40;30.40;96012.19;4928429;29;1305;-76
2021/11/29 03:13:59;;;;;;;;;;;;;;;21.89;31.64;95996.63;4925715;29;821;-76
2021/11/29 03:16:25;;;;;;;;;;;;;;;22.25;30.52;96010.22;4976769;28;1903;-76
2021/11/29 03:18:50;;;;;;;;;;;;;;;22.30;30.66;95991.72;4967277;28;1203;-77
2021/11/29 03:21:17;;;;;;;;;;;;;;;22.62;31.21;95984.06;4948743;29;1450;-76
2021/11/29 03:23:46;;;;;;;;;;;;;;;22.70;31.27;95961.75;4906284;29;913;-76
2021/11/29 03:26:14;;;;;;;;;;;;;;;22.84;31.01;95975.75;4929247;29;1040;-76
2021/11/29 03:28:40;;;;;;;;;;;;;;;22.44;30.94;95973.09;4879529;29;908;-77
2021/11/29 03:31:05;;;;;;;;;;;;;;;22.58;30.57;95977.84;4862255;29;1041;-76
2021/11/29 03:33:31;;;;;;;;;;;;;;;22.29;30.93;95959.78;4850267;29;1030;-76
2021/11/29 03:35:56;;;;;;;;;;;;;;;22.24;30.91;95963.34;4891279;29;938;-77
2021/11/29 03:38:22;;;;;;;;;;;;;;;22.35;30.92;95937.97;4891917;29;1989;-77
2021/11/29 03:40:47;;;;;;;;;;;;;;;22.33;30.83;95937.69;4891035;29;921;-76
2021/11/29 03:43:12;;;;;;;;;;;;;;;22.38;30.37;95926.88;4906874;29;1118;-77
2021/11/29 03:45:38;;;;;;;;;;;;;;;22.46;31.04;95942.94;4909431;29;929;-77
2021/11/29 03:48:03;;;;;;;;;;;;;;;22.87;31.05;95942.81;4907440;29;958;-76
2021/11/29 03:50:29;;;;;;;;;;;;;;;22.91;30.92;95936.94;4894438;29;904;-76
2021/11/29 03:52:54;;;;;;;;;;;;;;;22.53;30.73;95936.06;4874405;29;912;-76
2021/11/29 03:55:20;;;;;;;;;;;;;;;22.26;30.96;95923.94;4843396;29;836;-77
2021/11/29 03:57:45;;;;;;;;;;;;;;;22.47;30.41;95915.38;4861016;29;1907;-76
2021/11/29 04:00:11;;;;;;;;;;;;;;;22.38;30.61;95918.38;4935478;29;1076;-77
2021/11/29 04:02:39;;;;;;;;;;;;;;;22.24;30.76;95929.34;4951002;29;1300;-77
2021/11/29 04:05:05;;;;;;;;;;;;;;;22.36;30.38;95922.50;4944207;29;1444;-78
2021/11/29 04:07:30;;;;;;;;;;;;;;;22.41;30.37;95917.41;4904954;29;949;-78
2021/11/29 04:09:56;;;;;;;;;;;;;;;21.94;31.04;95910.97;4905733;29;932;-78
2021/11/29 04:12:22;;;;;;;;;;;;;;;22.22;30.85;95911.28;4908945;29;1088;-78
2021/11/29 04:14:47;;;;;;;;;;;;;;;22.67;31.21;95912.47;4906261;29;1001;-78
2021/11/29 04:17:13;;;;;;;;;;;;;;;22.78;30.98;95900.44;4946917;29;1979;-78
2021/11/29 04:19:42;;;;;;;;;;;;;;;22.53;30.81;95887.88;4944356;29;1121;-78
2021/11/29 04:22:07;;;;;;;;;;;;;;;22.46;31.03;95902.50;4927485;29;934;-77
2021/11/29 04:24:33;;;;;;;;;;;;;;;22.20;31.01;95908.19;4925247;29;927;-78
2021/11/29 04:27:03;;;;;;;;;;;;;;;22.32;30.60;95899.28;4927252;29;1110;-77
2021/11/29 04:29:30;;;;;;;;;;;;;;;22.31;30.47;95908.28;4920302;29;906;-77
2021/11/29 04:31:56;;;;;;;;;;;;;;;22.26;30.61;95906.94;4874647;29;1224;-78
2021/11/29 04:34:21;;;;;;;;;;;;;;;22.41;30.28;95889.84;4905578;29;953;-78
2021/11/29 04:36:46;;;;;;;;;;;;;;;22.60;31.63;95907.28;4893608;29;1959;-78
2021/11/29 04:39:12;;;;;;;;;;;;;;;22.90;30.86;95912.69;4861103;29;1210;-78
2021/11/29 04:41:37;;;;;;;;;;;;;;;22.92;30.70;95902.41;4860118;29;1031;-77
2021/11/29 04:44:03;;;;;;;;;;;;;;;23.06;30.30;95883.69;4852475;29;904;-77
2021/11/29 04:46:29;;;;;;;;;;;;;;;22.76;30.49;95888.84;4886035;29;998;-77
2021/11/29 04:48:54;;;;;;;;;;;;;;;22.47;30.84;95876.50;4868593;29;922;-78
2021/11/29 04:51:20;;;;;;;;;;;;;;;22.42;30.61;95882.13;4901503;29;1127;-78
2021/11/29 04:53:45;;;;;;;;;;;;;;;22.46;30.46;95885.50;4915130;29;827;-77
2021/11/29 04:56:10;;;;;;;;;;;;;;;22.66;30.06;95859.91;4943885;29;1019;-78
2021/11/29 04:58:36;;;;;;;;;;;;;;;22.40;30.89;95859.19;4938463;29;1982;-77
2021/11/29 05:01:01;;;;;;;;;;;;;;;22.18;30.68;95854.09;4946956;29;893;-77
2021/11/29 05:03:27;;;;;;;;;;;;;;;22.22;31.05;95861.06;4942371;29;968;-78
2021/11/29 05:05:52;;;;;;;;;;;;;;;22.21;30.72;95864.41;4946249;29;868;-78
2021/11/29 05:08:18;;;;;;;;;;;;;;;22.38;30.32;95882.31;4943283;29;1077;-77
2021/11/29 05:10:43;;;;;;;;;;;;;;;22.39;30.32;95877.47;4950012;28;812;-79
2021/11/29 05:13:09;;;;;;;;;;;;;;;22.42;30.30;95880.06;5015992;28;1363;-77
2021/11/29 05:15:35;;;;;;;;;;;;;;;22.15;30.69;95877.75;5023044;28;926;-77
2021/11/29 05:18:00;;;;;;;;;;;;;;;22.30;31.50;95889.75;5022160;28;1910;-78
2021/11/29 05:20:25;;;;;;;;;;;;;;;22.72;31.38;95885.47;5021447;28;849;-78
2021/11/29 05:22:51;;;;;;;;;;;;;;;22.81;31.50;95866.22;5022294;28;905;-77
2021/11/29 05:25:19;;;;;;;;;;;;;;;22.76;31.09;95858.44;5022143;28;1300;-78
2021/11/29 05:27:44;;;;;;;;;;;;;;;22.35;31.31;95824.63;5022146;28;865;-77
2021/11/29 05:30:10;;;;;;;;;;;;;;;22.39;31.10;95840.63;5009148;28;968;-77
2021/11/29 05:32:35;;;;;;;;;;;;;;;22.42;31.04;95842.44;5057425;28;773;-78
2021/11/29 05:35:01;;;;;;;;;;;;;;;22.33;31.18;95832.09;5020810;28;846;-78
2021/11/29 05:37:27;;;;;;;;;;;;;;;22.33;30.88;95847.03;5023921;28;1913;-77
2021/11/29 05:39:52;;;;;;;;;;;;;;;22.14;31.20;95848.66;5021328;28;910;-77
2021/11/29 05:42:18;;;;;;;;;;;;;;;22.31;30.97;95845.97;5022855;28;965;-78
2021/11/29 05:44:45;;;;;;;;;;;;;;;22.23;31.04;95845.66;5021182;28;1009;-79
2021/11/29 05:47:10;;;;;;;;;;;;;;;22.33;30.79;95841.34;5038542;28;826;-77
2021/11/29 05:49:36;;;;;;;;;;;;;;;22.27;31.05;95851.84;5040707;28;802;-78
2021/11/29 05:52:01;;;;;;;;;;;;;;;22.26;30.79;95853.13;5042891;28;875;-77
2021/11/29 05:54:27;;;;;;;;;;;;;;;22.30;30.76;95847.25;5041209;28;1106;-77
2021/11/29 05:56:53;;;;;;;;;;;;;;;22.27;30.71;95851.84;5023288;28;1902;-77
2021/11/29 05:59:20;;;;;;;;;;;;;;;22.55;31.32;95845.66;5020848;28;860;-78
2021/11/29 06:01:46;;;;;;;;;;;;;;;22.84;31.66;95836.81;5003518;28;955;-78
2021/11/29 06:04:12;;;;;;;;;;;;;;;22.95;31.64;95832.53;4962654;29;879;-77
2021/11/29 06:06:37;;;;;;;;;;;;;;;22.79;31.20;95828.28;4950350;29;903;-78
2021/11/29 06:09:03;;;;;;;;;;;;;;;22.49;31.43;95833.50;4943545;29;887;-78
2021/11/29 06:11:28;;;;;;;;;;;;;;;22.43;31.55;95827.00;4945410;29;1227;-78
2021/11/29 06:13:54;;;;;;;;;;;;;;;22.41;31.13;95832.41;4980907;28;929;-78
2021/11/29 06:16:19;;;;;;;;;;;;;;;22.17;31.40;95822.13;4965020;29;1879;-76
2021/11/29 06:18:45;;;;;;;;;;;;;;;22.24;31.30;95813.19;4929472;29;933;-78
2021/11/29 06:21:10;;;;;;;;;;;;;;;22.22;31.46;95820.63;4927424;29;1097;-78
2021/11/29 06:23:37;;;;;;;;;;;;;;;22.29;30.90;95809.63;4923045;29;1009;-78
2021/11/29 06:26:03;;;;;;;;;;;;;;;22.12;31.20;95811.53;4927691;29;890;-78
2021/11/29 06:28:29;;;;;;;;;;;;;;;22.26;31.09;95819.13;4937899;29;1250;-78
2021/11/29 06:30:54;;;;;;;;;;;;;;;22.01;31.89;95800.06;4945977;29;930;-78
2021/11/29 06:33:20;;;;;;;;;;;;;;;22.67;31.53;95810.44;4962564;28;980;-78
2021/11/29 06:35:45;;;;;;;;;;;;;;;22.76;31.70;95806.63;5002170;28;892;-77
2021/11/29 06:38:11;;;;;;;;;;;;;;;22.60;31.64;95805.25;4984271;28;1918;-77
2021/11/29 06:40:37;;;;;;;;;;;;;;;22.44;31.59;95794.56;4967203;29;1216;-78
2021/11/29 06:43:03;;;;;;;;;;;;;;;22.54;31.06;95812.94;4965116;29;896;-78
2021/11/29 06:45:28;;;;;;;;;;;;;;;22.29;31.33;95798.31;4933202;29;949;-78
2021/11/29 06:47:53;;;;;;;;;;;;;;;22.08;31.26;95802.47;4927456;29;891;-78
2021/11/29 06:50:19;;;;;;;;;;;;;;;22.21;31.34;95791.53;4927555;29;931;-78
2021/11/29 06:52:44;;;;;;;;;;;;;;;22.27;31.11;95783.06;4912111;29;971;-77
2021/11/29 06:55:14;;;;;;;;;;;;;;;22.17;31.02;95778.88;4889752;29;922;-77
2021/11/29 06:57:40;;;;;;;;;;;;;;;22.42;30.54;95774.44;4890561;29;1902;-77
2021/11/29 07:00:06;;;;;;;;;;;;;;;22.38;30.42;95776.72;4889491;29;979;-77
2021/11/29 07:02:32;;;;;;;;;;;;;;;22.22;30.89;95770.41;4909776;29;910;-77
2021/11/29 07:04:58;;;;;;;;;;;;;;;22.16;32.01;95766.00;4923375;29;1011;-76
2021/11/29 07:07:24;;;;;;;;;;;;;;;22.74;31.77;95758.16;4928518;29;872;-77
2021/11/29 07:09:49;;;;;;;;;;;;;;;22.80;31.81;95758.97;4913433;29;891;-77
2021/11/29 07:12:15;;;;;;;;;;;;;;;22.73;31.46;95763.03;4909130;29;1134;-77
2021/11/29 07:14:41;;;;;;;;;;;;;;;22.46;31.60;95763.66;4891459;29;1061;-77
2021/11/29 07:17:07;;;;;;;;;;;;;;;22.32;31.95;95757.63;4911107;29;1903;-78
2021/11/29 07:19:32;;;;;;;;;;;;;;;22.24;31.65;95758.59;4926469;29;981;-78
2021/11/29 07:21:58;;;;;;;;;;;;;;;22.22;31.81;95753.44;4963622;29;1190;-78
2021/11/29 07:24:23;;;;;;;;;;;;;;;22.50;31.34;95761.38;4916310;29;1003;-78
2021/11/29 07:26:49;;;;;;;;;;;;;;;22.44;31.35;95749.22;4925347;29;1124;-77
2021/11/29 07:29:14;;;;;;;;;;;;;;;22.47;30.94;95746.13;4904990;29;901;-78
2021/11/29 07:31:41;;;;;;;;;;;;;;;22.34;31.34;95743.75;4890218;29;940;-78
2021/11/29 07:34:06;;;;;;;;;;;;;;;21.99;31.83;95746.00;4888458;29;902;-78
2021/11/29 07:36:31;;;;;;;;;;;;;;;22.48;31.15;95752.56;4891620;29;1985;-77
2021/11/29 07:38:57;;;;;;;;;;;;;;;22.22;31.37;95746.97;4924929;29;1193;-78
2021/11/29 07:41:23;;;;;;;;;;;;;;;21.89;31.66;95730.47;4961706;29;1003;-77
2021/11/29 07:43:48;;;;;;;;;;;;;;;22.58;32.30;95743.38;4964319;28;953;-78
2021/11/29 07:46:14;;;;;;;;;;;;;;;22.74;31.89;95741.94;4947814;29;1253;-78
2021/11/29 07:48:40;;;;;;;;;;;;;;;22.81;32.10;95732.94;4943300;29;1215;-78
2021/11/29 07:51:05;;;;;;;;;;;;;;;22.42;31.96;95731.94;4962117;29;900;-78
2021/11/29 07:53:31;;;;;;;;;;;;;;;22.40;31.64;95734.50;4962965;28;1000;-77
2021/11/29 07:55:57;;;;;;;;;;;;;;;22.29;31.47;95735.22;4966547;28;871;-77
2021/11/29 07:58:22;;;;;;;;;;;;;;;22.36;31.46;95735.50;4962853;28;1887;-78
2021/11/29 08:00:48;;;;;;;;;;;;;;;22.44;30.71;95735.06;4966507;28;852;-78
2021/11/29 08:03:14;;;;;;;;;;;;;;;22.02;31.54;95722.34;4963634;28;907;-78
2021/11/29 08:05:39;;;;;;;;;;;;;;;22.02;31.54;95733.66;4946061;29;1172;-77
2021/11/29 08:08:05;;;;;;;;;;;;;;;22.22;30.84;95742.09;4943808;29;1014;-77
2021/11/29 08:10:33;;;;;;;;;;;;;;;22.41;31.37;95741.72;4945160;29;864;-77
2021/11/29 08:12:58;;;;;;;;;;;;;;;22.76;31.18;95745.03;4928147;29;1162;-78
2021/11/29 08:15:24;;;;;;;;;;;;;;;22.87;30.88;95761.31;4944510;29;1150;-77
2021/11/29 08:17:49;;;;;;;;;;;;;;;22.63;30.89;95742.63;4944219;29;1914;-77
2021/11/29 08:20:18;;;;;;;;;;;;;;;22.43;30.88;95741.97;4944169;29;934;-77
2021/11/29 08:22:43;;;;;;;;;;;;;;;22.44;30.64;95740.72;4944704;29;895;-77
2021/11/29 08:25:09;;;;;;;;;;;;;;;22.30;30.56;95736.75;4943531;29;905;-77
2021/11/29 08:27:34;;;;;;;;;;;;;;;22.33;30.51;95725.19;4959532;29;991;-78
2021/11/29 08:30:01;;;;;;;;;;;;;;;22.26;30.42;95747.53;4962945;28;873;-77
2021/11/29 08:32:26;;;;;;;;;;;;;;;22.23;30.25;95743.66;4987350;28;912;-77
2021/11/29 08:34:51;;;;;;;;;;;;;;;22.48;31.15;95729.91;4981128;28;1357;-78
2021/11/29 08:37:17;;;;;;;;;;;;;;;22.81;30.13;95730.09;4968395;28;1965;-77
2021/11/29 08:39:42;;;;;;;;;;;;;;;22.89;30.00;95741.75;4980419;28;930;-77
2021/11/29 08:42:08;;;;;;;;;;;;;;;22.33;30.52;95735.75;4964006;29;985;-78
2021/11/29 08:44:33;;;;;;;;;;;;;;;22.66;29.67;95735.19;4924580;29;1236;-77
2021/11/29 08:46:59;;;;;;;;;;;;;;;22.43;30.04;95730.66;4897253;29;915;-77
2021/11/29 08:49:25;;;;;;;;;;;;;;;22.21;30.25;95728.44;4887778;29;904;-77
2021/11/29 08:51:50;;;;;;;;;;;;;;;22.35;29.90;95716.97;4887924;29;907;-77
2021/11/29 08:54:16;;;;;;;;;;;;;;;22.55;30.78;95715.28;4886036;29;948;-77
2021/11/29 08:56:41;;;;;;;;;;;;;;;22.72;29.78;95709.69;4887290;29;1907;-77
2021/11/29 08:59:07;;;;;;;;;;;;;;;22.72;29.49;95727.47;4900987;29;1220;-76
2021/11/29 09:01:33;;;;;;;;;;;;;;;22.46;30.01;95729.66;4881806;29;956;-77
2021/11/29 09:03:58;;;;;;;;;;;;;;;22.29;30.01;95815.31;4886317;29;1315;-77
2021/11/29 09:06:24;;;;;;;;;;;;;;;22.29;30.09;95758.66;4900926;29;911;-78
2021/11/29 09:08:49;;;;;;;;;;;;;;;22.24;30.58;95776.38;4902912;29;942;-77
2021/11/29 09:11:15;;;;;;;;;;;;;;;22.63;30.13;95764.53;4925006;29;1247;-77
2021/11/29 09:13:41;;;;;;;;;;;;;;;23.02;29.25;95778.19;4921398;29;919;-77
2021/11/29 09:16:07;;;;;;;;;;;;;;;22.75;29.43;95788.84;4895681;29;943;-77
2021/11/29 09:18:35;;;;;;;;;;;;;;;22.41;30.02;95738.88;4883817;29;1879;-77
2021/11/29 09:21:01;;;;;;;;;;;;;;;22.40;29.72;95743.00;4886603;29;1000;-77
2021/11/29 09:23:27;;;;;;;;;;;;;;;22.22;30.30;95764.75;4878049;29;1182;-76
2021/11/29 09:25:52;;;;;;;;;;;;;;;22.43;30.75;95765.41;4885835;29;1296;-76
2021/11/29 09:28:18;;;;;;;;;;;;;;;22.84;30.00;95740.41;4883585;29;947;-77
2021/11/29 09:30:44;;;;;;;;;;;;;;;22.96;29.74;95740.53;4899879;29;924;-77
2021/11/29 09:33:09;;;;;;;;;;;;;;;22.56;30.62;95736.66;4902664;29;909;-77
2021/11/29 09:35:35;;;;;;;;;;;;;;;22.43;30.67;95724.97;4888072;29;1328;-76
2021/11/29 09:38:00;;;;;;;;;;;;;;;22.58;29.96;95734.09;4915122;29;1958;-77
2021/11/29 09:40:27;;;;;;;;;;;;;;;22.35;30.26;95721.84;4885030;29;924;-77
2021/11/29 09:42:53;;;;;;;;;;;;;;;22.23;30.76;95720.22;4885038;29;1002;-77
2021/11/29 09:45:18;;;;;;;;;;;;;;;22.26;30.96;95702.22;4846950;29;942;-77
2021/11/29 09:47:44;;;;;;;;;;;;;;;22.72;31.26;95676.44;4847981;29;870;-77
2021/11/29 09:50:10;;;;;;;;;;;;;;;22.87;30.94;95688.38;4832122;29;933;-77
2021/11/29 09:52:35;;;;;;;;;;;;;;;22.72;30.68;95681.34;4848331;29;927;-77
2021/11/29 09:55:01;;;;;;;;;;;;;;;22.42;31.12;95672.44;4870606;29;929;-77
2021/11/29 09:57:27;;;;;;;;;;;;;;;22.55;30.59;95723.78;4920667;29;1981;-77
2021/11/29 09:59:52;;;;;;;;;;;;;;;22.55;30.50;95712.44;4940250;29;955;-76
2021/11/29 10:02:17;;;;;;;;;;;;;;;22.31;30.95;95693.75;4942367;28;811;-77
2021/11/29 10:04:47;;;;;;;;;;;;;;;22.34;30.99;95689.91;4940448;29;895;-77
2021/11/29 10:07:13;;;;;;;;;;;;;;;22.36;30.87;95678.84;4944990;29;813;-76
2021/11/29 10:09:38;;;;;;;;;;;;;;;22.47;30.64;95677.34;4944696;29;934;-77
2021/11/29 10:12:10;;;;;;;;;;;;;;;22.25;31.05;95689.34;4960599;29;1047;-76
2021/11/29 10:14:36;;;;;;;;;;;;;;;22.23;31.13;95687.03;4964806;28;1555;-77
2021/11/29 10:17:01;;;;;;;;;;;;;;;22.51;31.76;95663.72;4949843;29;1895;-77
2021/11/29 10:19:27;;;;;;;;;;;;;;;22.70;31.73;95662.03;4947745;29;1200;-77
2021/11/29 10:21:52;;;;;;;;;;;;;;;22.73;31.67;95669.50;4965607;29;966;-77
2021/11/29 10:24:22;;;;;;;;;;;;;;;22.31;31.77;95658.97;4963053;29;1155;-77
2021/11/29 10:26:53;;;;;;;;;;;;;;;22.30;31.47;95663.88;4978517;28;973;-77
2021/11/29 10:29:19;;;;;;;;;;;;;;;22.21;31.55;95666.13;4963016;29;1115;-76
2021/11/29 10:31:48;;;;;;;;;;;;;;;22.31;31.29;95648.41;4926625;29;1321;-76
2021/11/29 10:34:15;;;;;;;;;;;;;;;22.14;31.42;95650.38;4890136;29;918;-77
2021/11/29 10:36:41;;;;;;;;;;;;;;;22.33;31.34;95657.22;4907171;29;1899;-77
2021/11/29 10:39:10;;;;;;;;;;;;;;;22.35;31.09;95654.63;4886533;29;891;-77
2021/11/29 10:41:36;;;;;;;;;;;;;;;22.70;31.99;95639.34;4889089;29;889;-76
2021/11/29 10:44:03;;;;;;;;;;;;;;;22.72;32.13;95630.31;4852819;29;926;-78
2021/11/29 10:46:35;;;;;;;;;;;;;;;22.81;31.79;95642.22;4851625;29;967;-76
2021/11/29 10:49:03;;;;;;;;;;;;;;;22.51;32.02;95609.88;4843846;29;889;-76
2021/11/29 10:51:28;;;;;;;;;;;;;;;22.47;31.75;95649.03;4783950;29;932;-76
2021/11/29 10:54:07;;;;;;;;;;;;;;;22.42;31.73;95646.94;4781101;30;982;-77
2021/11/29 10:56:35;;;;;;;;;;;;;;;22.26;31.86;95625.72;4851184;29;1974;-76
2021/11/29 10:59:01;;;;;;;;;;;;;;;22.28;31.94;95654.34;4848753;29;975;-77
2021/11/29 11:01:42;;;;;;;;;;;;;;;22.25;31.38;95697.84;4887339;29;882;-76
2021/11/29 11:04:15;;;;;;;;;;;;;;;22.24;31.32;95784.09;4887504;29;929;-76
2021/11/29 11:06:44;;;;;;;;;;;;;;;22.22;31.44;95701.66;4911072;29;832;-77
2021/11/29 11:09:10;;;;;;;;;;;;;;;22.39;32.37;95673.47;4935060;29;883;-76
2021/11/29 11:11:37;;;;;;;;;;;;;;;22.72;32.24;95682.13;4982699;28;1366;-77
2021/11/29 11:14:02;;;;;;;;;;;;;;;22.85;31.93;95759.00;4981959;28;920;-77
2021/11/29 11:16:46;;;;;;;;;;;;;;;22.55;32.17;95652.94;4983072;28;1985;-77
2021/11/29 11:19:25;;;;;;;;;;;;;;;22.19;32.08;95646.81;4983910;28;1022;-76
2021/11/29 11:21:51;;;;;;;;;;;;;;;22.23;32.11;95674.91;5003383;28;859;-76
2021/11/29 11:24:24;;;;;;;;;;;;;;;22.33;31.62;95707.44;5013289;28;855;-77
2021/11/29 11:26:50;;;;;;;;;;;;;;;22.28;31.44;95736.50;5013813;28;919;-76
2021/11/29 11:29:30;;;;;;;;;;;;;;;22.34;31.49;95689.91;4988569;28;931;-76
2021/11/29 11:32:06;;;;;;;;;;;;;;;22.31;31.41;95764.56;4983155;28;921;-77
2021/11/29 11:34:35;;;;;;;;;;;;;;;22.30;31.48;95754.53;4981694;28;887;-77
2021/11/29 11:37:00;;;;;;;;;;;;;;;22.48;32.35;95769.56;4982741;28;1979;-78
2021/11/29 11:39:26;;;;;;;;;;;;;;;22.75;32.33;95760.50;4980103;28;1223;-77
2021/11/29 11:41:51;;;;;;;;;;;;;;;22.88;31.92;95762.91;4990357;28;856;-76
2021/11/29 11:44:17;;;;;;;;;;;;;;;22.43;32.24;95753.31;5019515;28;801;-74
2021/11/29 11:46:42;;;;;;;;;;;;;;;22.35;32.26;95773.63;5002243;28;920;-77
2021/11/29 11:49:07;;;;;;;;;;;;;;;22.44;31.65;95769.06;4981035;28;881;-77
2021/11/29 11:51:33;;;;;;;;;;;;;;;22.41;31.57;95767.22;4982368;28;885;-77
2021/11/29 11:53:58;;;;;;;;;;;;;;;22.48;31.75;95792.25;4981021;28;995;-77
2021/11/29 11:56:25;;;;;;;;;;;;;;;22.29;32.05;95840.81;4983438;28;847;-77
2021/11/29 11:58:53;;;;;;;;;;;;;;;22.30;31.94;95833.84;4980333;28;1902;-77
2021/11/29 12:01:18;;;;;;;;;;;;;;;22.32;31.94;95808.63;4944685;29;1135;-77
2021/11/29 12:03:47;;;;;;;;;;;;;;;22.47;31.86;95819.03;4944397;29;1213;-77
2021/11/29 12:06:18;;;;;;;;;;;;;;;22.32;31.95;95842.63;4945000;29;955;-77
2021/11/29 12:08:46;;;;;;;;;;;;;;;22.35;32.19;95830.28;4921372;29;1157;-77
2021/11/29 12:11:26;;;;;;;;;;;;;;;22.56;33.54;95811.13;4939654;29;1284;-76
2021/11/29 12:14:05;;;;;;;;;;;;;;;22.69;33.73;95819.22;4939809;29;1287;-76
2021/11/29 12:16:44;;;;;;;;;;;;;;;22.84;33.62;95819.81;4942798;29;1988;-77
2021/11/29 12:19:35;;;;;;;;;;;;;;;22.82;32.98;95807.44;4962740;28;1160;-77
2021/11/29 12:22:01;;;;;;;;;;;;;;;22.58;32.85;95814.22;4970447;28;1231;-76
2021/11/29 12:24:28;;;;;;;;;;;;;;;22.59;32.82;95838.47;4913165;29;1299;-76
2021/11/29 12:26:53;;;;;;;;;;;;;;;22.43;32.96;95852.50;4913752;29;1284;-77
2021/11/29 12:29:22;;;;;;;;;;;;;;;22.39;32.72;95861.25;4913668;29;1304;-77
2021/11/29 12:31:47;;;;;;;;;;;;;;;22.39;32.62;95857.63;4907930;29;1212;-78
2021/11/29 12:34:12;;;;;;;;;;;;;;;22.39;32.48;95857.63;4902448;29;1307;-76
2021/11/29 12:36:56;;;;;;;;;;;;;;;22.50;32.12;95871.88;4945133;29;1910;-77
2021/11/29 12:39:40;;;;;;;;;;;;;;;22.35;32.47;95892.63;4956113;28;971;-77
2021/11/29 12:42:06;;;;;;;;;;;;;;;22.23;32.21;95902.31;4983511;28;775;-77
2021/11/29 12:44:43;;;;;;;;;;;;;;;22.30;32.08;95909.56;4961539;29;946;-76
2021/11/29 12:47:15;;;;;;;;;;;;;;;22.38;31.64;95919.16;4963010;29;1051;-77
2021/11/29 12:49:41;;;;;;;;;;;;;;;22.23;31.96;95919.31;4961387;29;928;-76
2021/11/29 12:52:06;;;;;;;;;;;;;;;22.16;32.29;95953.72;4962701;28;992;-77
2021/11/29 12:54:31;;;;;;;;;;;;;;;22.17;31.83;95955.25;4964666;28;1305;-76
2021/11/29 12:57:15;;;;;;;;;;;;;;;22.08;31.94;95961.84;4982714;28;1980;-77
2021/11/29 12:59:50;;;;;;;;;;;;;;;22.12;31.87;95952.38;4950276;28;979;-77